• Join FlightAware (Why Join?)
  • Login
  • US Flag 
10:52AM EDT


 

Airport Tracker/Info


-or-


 

Live Flight TrackerFlight Track Log ✈ N81HR ✈ 18-Oct-2013 ✈ KAPA - KSCH

Flight Track Log - Related Links

Times and Time Zones

All times are in EDT time to prevent confusion due to time zone crossing. See the N81HR flight status page for this flight to view local times or setup timezone preferences in your user account.

Time Position Orientation Groundspeed Altitude Reporting Facility
EDT Latitude Longitude Course Direction KTS MPH feet Rate Location/Type
11:44AM 39.5167 -104.8667 72° East 239 275 7,600  Level Denver TRACON
11:45AM 39.5667 -104.9500 308° West 300 345 10,600 2,880 Climbing Denver TRACON
11:46AM 39.6667 -104.8794 29° Northeast 327 376 14,400 2,820 Climbing Denver Center
11:47AM 39.7039 -104.7656 67° East 346 398 17,400 2,700 Climbing Denver Center
11:48AM 39.7436 -104.6397 68° East 357 411 20,100 2,400 Climbing Denver Center
11:49AM 39.7825 -104.5208 67° East 360 414 22,400 2,160 Climbing Denver Center
11:50AM 39.7992 -103.9263 72° East  Level Estimated
11:50AM 39.8211 -104.4019 67° East 355 409 24,700  Level Denver Center
11:52AM 39.8589 -104.2800 68° East 361 415 26,700 1,920 Climbing Denver Center
11:53AM 39.8931 -104.1550 70° East 363 418 28,700 1,800 Climbing Denver Center
11:54AM 39.9244 -103.9956 76° East 378 435 30,500 1,620 Climbing Denver Center
11:55AM 39.9531 -103.8617 74° East 380 437 32,100 1,200 Climbing Denver Center
11:56AM 39.9797 -103.7303 75° East 377 434 33,100 960 Climbing Denver Center
11:57AM 40.0075 -103.5953 75° East 386 444 34,100 960 Climbing Denver Center
11:58AM 40.0353 -103.4569 75° East 395 455 35,100 960 Climbing Denver Center
11:59AM 40.0633 -103.3203 75° East 392 451 36,100 1,020 Climbing Denver Center
12:00PM 40.0953 -103.1564 76° East 389 448 37,300 780 Climbing Denver Center
12:01PM 40.1219 -103.0200 76° East 389 448 37,800 480 Climbing Denver Center
12:02PM 40.1497 -102.8811 75° East 394 453 38,300 480 Climbing Denver Center
12:03PM 40.1756 -102.7392 77° East 401 461 38,800 480 Climbing Denver Center
12:04PM 40.2036 -102.5969 75° East 403 464 39,300 480 Climbing Denver Center
12:05PM 40.2339 -102.4367 76° East 408 470 39,900 480 Climbing Denver Center
12:06PM 40.2606 -102.2992 76° East 409 471 40,300 420 Climbing Denver Center
12:07PM 40.2908 -102.1372 76° East 409 471 40,800 300 Climbing Denver Center
12:08PM 40.3172 -101.9972 76° East 413 475 41,000 60 Climbing Denver Center
12:09PM 40.3489 -101.8303 76° East 425 489 41,000  Level Denver Center
12:10PM 40.3750 -101.6828 77° East 433 498 41,000  Level Denver Center
12:11PM 40.4086 -101.5086 76° East 441 507 41,000  Level Denver Center
12:12PM 40.4353 -101.3550 77° East 450 518 41,000  Level Denver Center
12:13PM 40.4669 -101.1747 77° East 456 525 41,000  Level Denver Center
12:14PM 40.4953 -101.0186 77° East 461 531 41,000  Level Denver Center
12:15PM 40.5272 -100.8356 77° East 464 534 41,000  Level Denver Center
12:16PM 40.5542 -100.6786 77° East 465 535 41,000  Level Denver Center
12:17PM 40.5867 -100.4944 77° East 468 539 41,000  Level Denver Center
12:18PM 40.6142 -100.3356 77° East 470 541 41,000  Level Denver Center
12:19PM 40.6458 -100.1489 77° East 470 541 41,000  Level Denver Center
12:20PM 40.6728 -99.9892 77° East 468 539 41,000  Level Denver Center
12:22PM 40.6997 -99.8253 78° East 465 535 41,000  Level Denver Center
12:23PM 40.7328 -99.6250 78° East 467 537 41,000  Level Denver Center
12:24PM 40.7606 -99.4575 78° East 468 539 41,000  Level Denver Center
12:25PM 40.7858 -99.2975 78° East 466 536 41,000  Level Denver Center
12:26PM 40.8178 -99.0994 78° East 467 537 41,000  Level Minneapolis Center
12:27PM 40.8436 -98.9306 79° East 469 540 41,000  Level Minneapolis Center
12:28PM 40.8697 -98.7617 78° East 470 541 41,000  Level Minneapolis Center
12:29PM 40.9017 -98.5575 78° East 472 543 41,000  Level Minneapolis Center
12:30PM 40.9281 -98.3869 78° East 472 543 41,000  Level Minneapolis Center
12:31PM 40.9536 -98.2181 79° East 472 543 41,000  Level Minneapolis Center
12:32PM 40.9789 -98.0494 79° East 471 542 41,000  Level Minneapolis Center
12:33PM 41.0033 -97.8783 79° East 472 543 41,000  Level Minneapolis Center
12:34PM 41.0328 -97.6747 79° East 471 542 41,000  Level Minneapolis Center
12:35PM 41.0581 -97.5064 79° East 469 540 41,000  Level Minneapolis Center
12:36PM 41.0817 -97.3336 80° East 471 542 41,000  Level Minneapolis Center
12:37PM 41.1064 -97.1647 79° East 470 541 41,000  Level Minneapolis Center
12:38PM 41.1306 -96.9950 79° East 469 540 41,000  Level Minneapolis Center
12:39PM 41.1544 -96.8239 79° East 472 543 41,000  Level Minneapolis Center
12:40PM 41.1769 -96.6525 80° East 473 544 41,000  Level Minneapolis Center
12:41PM 41.2061 -96.4486 79° East 471 542 41,000  Level Minneapolis Center
12:42PM 41.2281 -96.2769 80° East 470 541 41,000  Level Minneapolis Center
12:43PM 41.2506 -96.1069 80° East 468 539 41,000  Level Minneapolis Center
12:44PM 41.2728 -95.9364 80° East 468 539 41,000  Level Minneapolis Center
12:45PM 41.2939 -95.7661 81° East 467 537 41,000  Level Minneapolis Center
12:46PM 41.3178 -95.5761 80° East 467 537 41,000  Level Minneapolis Center
12:48PM 41.3392 -95.4050 80° East 469 540 41,000  Level Minneapolis Center
12:49PM 41.3603 -95.2339 81° East 470 541 41,000  Level Minneapolis Center
12:50PM 41.3808 -95.0631 81° East 469 540 41,000  Level Minneapolis Center
12:51PM 41.4017 -94.8919 81° East 470 541 41,000  Level Minneapolis Center
12:52PM 41.4261 -94.6864 81° East 468 539 41,000  Level Minneapolis Center
12:53PM 41.4467 -94.5169 81° East 465 535 41,000  Level Minneapolis Center
12:54PM 41.4642 -94.3472 82° East 463 533 41,000  Level Minneapolis Center
12:55PM 41.4867 -94.1644 81° East 464 534 41,000  Level Minneapolis Center
12:56PM 41.5058 -93.9969 81° East 461 531 41,000  Level Minneapolis Center
12:57PM 41.5236 -93.8283 82° East 461 531 41,000  Level Minneapolis Center
12:58PM 41.5428 -93.6597 81° East 462 532 41,000  Level Minneapolis Center
12:59PM 41.5622 -93.4892 81° East 465 535 41,000  Level Minneapolis Center
01:00PM 41.5831 -93.2861 82° East 464 534 41,000  Level Minneapolis Center
01:01PM 41.6014 -93.1161 82° East 464 534 41,000  Level Minneapolis Center
01:02PM 41.6183 -92.9478 82° East 462 532 41,000  Level Minneapolis Center
01:03PM 41.6367 -92.7789 82° East 461 531 41,000  Level Minneapolis Center
01:04PM 41.6569 -92.5722 82° East 466 536 41,000  Level Minneapolis Center
01:05PM 41.6739 -92.4017 82° East 467 537 41,000  Level Minneapolis Center
01:06PM 41.6900 -92.2397 82° East 467 537 41,000  Level Minneapolis Center
01:07PM 41.7056 -92.0683 83° East 468 539 41,000  Level Minneapolis Center
01:08PM 41.7253 -91.8633 83° East 468 539 41,000  Level Minneapolis Center
01:09PM 41.7389 -91.7067 83° East 472 543 41,000  Level Minneapolis Center
01:11PM 41.7619 -91.4456 83° East 472 543 41,000  Level Chicago Center
01:12PM 41.7808 -91.2367 83° East 476 548 41,000  Level Chicago Center
01:13PM 41.7958 -91.0622 83° East 478 550 41,000  Level Chicago Center
01:14PM 41.8103 -90.8869 84° East 479 551 41,000  Level Chicago Center
01:15PM 41.8256 -90.7122 83° East 478 550 41,000  Level Chicago Center
01:16PM 41.8392 -90.5347 84° East 482 555 41,000  Level Chicago Center
01:17PM 41.8572 -90.3239 83° East 482 555 41,000  Level Chicago Center
01:18PM 41.8711 -90.1497 84° East 478 550 41,000  Level Chicago Center
01:19PM 41.8833 -89.9781 84° East 471 542 41,000  Level Chicago Center
01:20PM 41.8964 -89.8003 84° East 469 540 41,000  Level Chicago Center
01:21PM 41.9094 -89.6225 84° East 480 552 41,000  Level Chicago Center
01:22PM 41.9261 -89.4019 84° East 498 573 41,000  Level Chicago Center
01:23PM 41.9386 -89.2156 85° East 501 577 41,000  Level Chicago Center
01:24PM 41.9511 -89.0286 85° East 505 581 41,000  Level Chicago Center
01:25PM 41.9622 -88.8389 85° East 508 585 41,000  Level Chicago Center
01:26PM 41.9753 -88.6514 85° East 507 583 41,000  Level Chicago Center
01:27PM 41.9864 -88.4669 85° East 500 575 41,000  Level Chicago Center
01:28PM 42.0003 -88.2483 85° East 492 566 41,000  Level Chicago Center
01:29PM 42.0111 -88.0667 85° East 489 563 41,000  Level Chicago Center
01:30PM 42.0219 -87.8844 85° East 486 559 41,000  Level Chicago Center
01:31PM 42.0314 -87.7053 86° East 480 552 41,000  Level Chicago Center
01:33PM 42.0408 -87.5261 86° East 480 552 41,000  Level Chicago Center
01:34PM 42.0508 -87.3472 86° East 480 552 41,000  Level Chicago Center
01:35PM 42.0642 -87.1700 84° East 478 550 41,000  Level Chicago Center
01:36PM 42.0908 -86.9586 80° East 479 551 41,000  Level Chicago Center
01:37PM 42.1111 -86.7817 81° East 480 552 41,000  Level Chicago Center
01:38PM 42.1292 -86.6200 81° East 480 552 41,000  Level Chicago Center
01:39PM 42.1539 -86.4058 81° East 483 556 41,000  Level Chicago Center
01:40PM 42.1733 -86.2292 81° East 478 550 41,000  Level Chicago Center
01:41PM 42.1931 -86.0492 82° East 482 555 41,000  Level Chicago Center
01:42PM 42.2128 -85.8700 81° East 481 554 41,000  Level Chicago Center
01:43PM 42.2319 -85.6922 82° East 480 552 41,000  Level Chicago Center
01:44PM 42.2500 -85.5144 82° East 477 549 41,000  Level Chicago Center
01:45PM 42.2692 -85.3358 82° East 478 550 41,000  Level Chicago Center
01:46PM 42.2911 -85.1228 82° East 478 550 41,000  Level Chicago Center
01:47PM 42.3094 -84.9433 82° East 479 551 41,000  Level Chicago Center
01:48PM 42.3261 -84.7636 83° East 482 555 41,000  Level Chicago Center
01:49PM 42.3433 -84.5819 83° East 480 552 41,000  Level Chicago Center
01:50PM 42.3594 -84.4067 83° East 479 551 41,000  Level Chicago Center
01:51PM 42.3772 -84.2300 82° East 478 550 41,000  Level Chicago Center
01:52PM 42.3978 -84.0139 83° East 480 552 41,000  Level Chicago Center
01:53PM 42.4094 -83.8403 85° East 488 562 41,000  Level Cleveland Center
01:54PM 42.4250 -83.6553 83° East 490 564 41,000  Level Cleveland Center
01:55PM 42.4414 -83.4686 83° East 489 563 41,000  Level Cleveland Center
01:56PM 42.4575 -83.2808 83° East 493 567 41,000  Level Cleveland Center
01:57PM 42.4719 -83.0975 84° East 489 563 41,000  Level Cleveland Center
01:58PM 42.4894 -82.8794 84° East 486 559 41,000  Level Cleveland Center
01:59PM 42.5039 -82.6942 84° East 491 565 41,000  Level Cleveland Center
02:00PM 42.5192 -82.5053 84° East 500 575 41,000  Level Cleveland Center
02:01PM 42.5333 -82.3142 84° East 507 583 41,000  Level Cleveland Center
02:03PM 42.5472 -82.1203 84° East 515 593 41,000  Level Cleveland Center
02:04PM 42.5617 -81.9267 84° East 517 595 41,000  Level Cleveland Center
02:05PM 42.5769 -81.7028 85° East 520 598 41,000  Level Cleveland Center
02:06PM 42.5914 -81.5050 84° East 521 600 41,000  Level Cleveland Center
02:07PM 42.6050 -81.3050 85° East 525 604 41,000  Level Cleveland Center
02:08PM 42.6172 -81.1072 85° East 523 602 41,000  Level Cleveland Center
02:09PM 42.6294 -80.9064 85° East 527 606 41,000  Level Cleveland Center
02:10PM 42.6442 -80.6769 85° East 521 600 41,000  Level Cleveland Center
02:11PM 42.6561 -80.4783 85° East 522 601 41,000  Level Cleveland Center
02:12PM 42.6678 -80.2814 85° East 520 598 41,000 -120 Level Cleveland Center
02:13PM 42.6781 -80.0806 86° East 525 604 40,800 -600 Descending Cleveland Center
02:14PM 42.6914 -79.8639 85° East 522 601 39,800 -900 Descending Cleveland Center
02:15PM 42.7019 -79.6639 86° East 532 612 39,000 -780 Descending Cleveland Center
02:16PM 42.7122 -79.4622 86° East 537 618 38,200 -780 Descending Cleveland Center
02:17PM 42.7219 -79.2583 86° East 540 621 37,400 -780 Descending Cleveland Center
02:18PM 42.7314 -79.0564 86° East 537 618 36,600 -780 Descending Cleveland Center
02:19PM 42.7400 -78.8536 87° East 538 619 35,800 -840 Descending Cleveland Center
02:20PM 42.7503 -78.6119 87° East 536 617 34,900 -840 Descending Cleveland Center
02:21PM 42.7581 -78.4094 87° East 536 617 34,100 -780 Descending Cleveland Center
02:22PM 42.7667 -78.2133 87° East 521 600 33,300 -780 Descending Cleveland Center
02:23PM 42.7739 -78.0208 87° East 511 588 32,500 -780 Descending Cleveland Center
02:24PM 42.7806 -77.8261 87° East 510 587 31,800 -600 Descending Cleveland Center
02:25PM 42.7875 -77.6231 87° East 521 600 31,300 -660 Descending Cleveland Center
02:26PM 42.7939 -77.4169 88° East 533 613 30,500 -780 Descending Cleveland Center
02:27PM 42.8006 -77.2189 87° East 525 604 29,700 -720 Descending Cleveland Center
02:28PM 42.8072 -76.9839 88° East 519 597 29,100 -360 Descending Cleveland Center
02:29PM 42.8136 -76.7889 87° East 517 595 29,000 -60 Descending Cleveland Center
02:30PM 42.8169 -76.6083 88° East 514 592 29,000  Level Cleveland Center
02:31PM 42.8219 -76.4183 88° East 506 582 29,000 -720 Level Cleveland Center
02:33PM 42.8283 -76.1889 88° East 503 579 27,500 -1,440 Descending Boston Center
02:34PM 42.8347 -75.9967 87° East 503 579 26,100 -1,620 Descending Boston Center
02:35PM 42.8364 -75.8011 89° East 508 585 24,300 -1,920 Descending Boston Center
02:36PM 42.8375 -75.6172 89° East 501 577 22,300 -2,040 Descending Boston Center
02:37PM 42.8403 -75.4333 89° East 495 570 20,300 -2,040 Descending Boston Center
02:38PM 42.8428 -75.2606 89° East 476 548 18,300 -1,980 Descending Boston Center
02:39PM 42.8300 -75.0958 96° East 452 520 16,400 -1,680 Descending Boston Center
02:40PM 42.7981 -74.9472 106° East 423 487 15,000 -1,440 Descending Boston Center
02:41PM 42.7697 -74.8019 105° East 403 464 13,500 -1,500 Descending Boston Center
02:41PM 42.7661 -74.7819 104° East 396 456 13,300 -960 Descending Boston Center
02:41PM 42.7492 -74.6850 103° East 385 443 12,700 -960 Descending Boston Center
02:42PM 42.7414 -74.6594 113° Southeast 398 458 12,500 -1,140 Descending Boston Center
02:42PM 42.7603 -74.5356 78° East 369 425 11,600 -900 Descending Boston Center
02:43PM 42.7583 -74.5356 180° South 361 415 11,600 -1,320 Level Boston Center
02:43PM 42.7772 -74.4061 79° East 356 410 10,300 -1,440 Descending Boston Center
02:44PM 42.7797 -74.3919 76° East 361 415 10,200 -2,280 Descending Boston Center
02:45PM 42.7981 -74.2822 77° East 300 345 7,800 -2,340 Descending Boston Center
02:46PM 42.8103 -74.1750 81° East 284 327 5,700 -2,160 Descending Boston Center
02:46PM 42.8136 -74.0931 87° East 234 269 3,700 -1,980 Descending Boston Center
02:47PM 42.8136 -74.0903 90° East 257 296 3,700 -1,260 Level Boston Center
02:48PM 42.8147 -74.0081 89° East 220 253 2,400 -900 Descending Boston Center
02:48PM 42.8117 -73.9261 93° East 207 238 2,000 -480 Descending Boston Center
02:49PM 42.8247 -73.8867 66° East 153 176 1,600 -720 Descending Boston Center
02:50PM 42.8494 -73.9100 325° Northwest 114 131 700 -840 Descending Boston Center